createdAt,value
2022-08-27T00:02:22.414Z,90.93
2022-08-27T00:04:51.113Z,91.04
2022-08-27T00:07:19.493Z,91.03
2022-08-27T00:09:48.071Z,91.06
2022-08-27T00:12:16.552Z,91.13
2022-08-27T00:14:45.452Z,91.21
2022-08-27T00:17:14.159Z,91.36
2022-08-27T00:19:42.978Z,91.44
2022-08-27T00:22:12.936Z,91.45
2022-08-27T00:24:45.213Z,91.44
2022-08-27T00:27:18.192Z,91.70
2022-08-27T00:29:49.952Z,91.86
2022-08-27T00:32:19.532Z,91.92
2022-08-27T00:34:47.928Z,92.19
2022-08-27T00:37:16.616Z,92.84
2022-08-27T00:39:45.403Z,93.08
2022-08-27T00:42:14.089Z,93.29
2022-08-27T00:44:42.801Z,93.28
2022-08-27T00:47:18.105Z,93.54
2022-08-27T00:50:02.537Z,94.19
2022-08-27T00:52:45.268Z,94.41
2022-08-27T00:55:36.019Z,94.61
2022-08-27T00:58:27.303Z,94.66
2022-08-27T01:00:57.577Z,94.43
2022-08-27T01:03:27.258Z,94.60
2022-08-27T01:06:01.769Z,94.68
2022-08-27T01:08:36.556Z,94.80
2022-08-27T01:11:07.441Z,94.86
2022-08-27T01:13:54.463Z,95.02
2022-08-27T01:16:33.812Z,95.13
2022-08-27T01:19:07.410Z,95.16
2022-08-27T01:21:56.148Z,95.46
2022-08-27T01:24:42.163Z,95.69
2022-08-27T01:27:18.768Z,95.80
2022-08-27T01:29:47.208Z,95.61
2022-08-27T01:32:19.812Z,95.67
2022-08-27T01:34:49.316Z,95.92
2022-08-27T01:37:23.621Z,95.93
2022-08-27T01:39:57.493Z,96.13
2022-08-27T01:42:33.650Z,96.08
2022-08-27T01:45:14.211Z,95.95
2022-08-27T01:47:43.277Z,96.13
2022-08-27T01:50:20.463Z,96.27
2022-08-27T01:52:49.707Z,96.34
2022-08-27T01:55:23.297Z,96.58
2022-08-27T01:57:54.565Z,97.03
2022-08-27T02:00:28.669Z,97.21
2022-08-27T02:02:59.393Z,97.50
2022-08-27T02:05:30.257Z,97.60
2022-08-27T02:07:59.157Z,97.83
2022-08-27T02:10:37.136Z,97.94
2022-08-27T02:13:07.386Z,97.72
2022-08-27T02:15:37.601Z,97.76
2022-08-27T02:18:08.900Z,97.80
2022-08-27T02:23:29.928Z,97.92
2022-08-27T02:25:58.375Z,97.82
2022-08-27T02:28:26.835Z,97.75
2022-08-27T02:30:55.442Z,97.89
2022-08-27T02:33:23.904Z,97.82
2022-08-27T02:35:52.830Z,97.84
2022-08-27T02:38:21.338Z,98.00
2022-08-27T02:40:49.973Z,97.87
2022-08-27T02:43:24.922Z,97.76
2022-08-27T02:45:54.076Z,97.97
2022-08-27T02:48:23.392Z,97.89
2022-08-27T02:50:52.345Z,98.00
2022-08-27T02:53:21.685Z,97.98
2022-08-27T02:55:52.457Z,98.34
2022-08-27T02:58:20.891Z,98.33
2022-08-27T03:00:49.466Z,98.47
2022-08-27T03:03:18.641Z,98.76
2022-08-27T03:05:48.492Z,99.00
2022-08-27T03:08:16.893Z,99.44
2022-08-27T03:10:46.071Z,99.45
2022-08-27T03:13:14.556Z,99.62
2022-08-27T03:15:42.998Z,99.94
2022-08-27T03:18:21.799Z,100.00
2022-08-27T03:20:56.525Z,100.00
2022-08-27T03:23:29.123Z,100.00
2022-08-27T03:26:01.123Z,100.00
2022-08-27T03:29:45.961Z,100.00
2022-08-27T03:32:14.441Z,100.00
2022-08-27T03:34:42.864Z,100.00
2022-08-27T03:37:11.305Z,100.00
2022-08-27T03:39:39.762Z,100.00
2022-08-27T03:42:08.148Z,100.00
2022-08-27T03:44:36.644Z,100.00
2022-08-27T03:49:53.014Z,100.00
2022-08-27T03:52:21.476Z,100.00
2022-08-27T03:54:50.100Z,100.00
2022-08-27T03:57:18.593Z,100.00
2022-08-27T03:59:46.995Z,100.00
2022-08-27T04:02:16.481Z,100.00
2022-08-27T04:04:45.029Z,100.00
2022-08-27T04:07:13.496Z,100.00
2022-08-27T04:09:42.459Z,100.00
2022-08-27T04:12:11.840Z,100.00
2022-08-27T04:14:40.391Z,100.00
2022-08-27T04:17:30.113Z,100.00
2022-08-27T04:20:36.305Z,100.00
2022-08-27T04:23:06.194Z,100.00
2022-08-27T04:25:34.603Z,100.00
2022-08-27T04:28:03.420Z,100.00
2022-08-27T04:30:32.945Z,100.00
2022-08-27T04:33:01.329Z,100.00
2022-08-27T04:35:29.715Z,100.00
2022-08-27T04:37:58.689Z,100.00
2022-08-27T04:40:47.102Z,100.00
2022-08-27T04:43:17.624Z,100.00
2022-08-27T04:45:48.639Z,100.00
2022-08-27T04:48:19.396Z,100.00
2022-08-27T04:50:48.386Z,100.00
2022-08-27T04:53:18.181Z,100.00
2022-08-27T04:55:53.684Z,100.00
2022-08-27T04:58:24.634Z,100.00
2022-08-27T05:00:59.367Z,100.00
2022-08-27T05:03:28.889Z,100.00
2022-08-27T05:06:05.567Z,100.00
2022-08-27T05:08:34.830Z,100.00
2022-08-27T05:11:03.514Z,100.00
2022-08-27T05:13:31.959Z,100.00
2022-08-27T05:16:04.247Z,100.00
2022-08-27T05:18:37.974Z,100.00
2022-08-27T05:21:33.949Z,100.00
2022-08-27T05:24:06.580Z,100.00
2022-08-27T05:26:36.411Z,100.00
2022-08-27T05:29:06.698Z,100.00
2022-08-27T05:31:35.429Z,100.00
2022-08-27T05:34:10.110Z,100.00
2022-08-27T05:36:48.545Z,100.00
2022-08-27T05:39:18.071Z,100.00
2022-08-27T05:41:46.689Z,100.00
2022-08-27T05:47:05.628Z,100.00
2022-08-27T05:49:34.122Z,100.00
2022-08-27T05:52:02.855Z,100.00
2022-08-27T05:54:31.240Z,100.00
2022-08-27T05:56:59.596Z,100.00
2022-08-27T05:59:46.977Z,100.00
2022-08-27T06:02:15.498Z,100.00
2022-08-27T06:04:43.895Z,100.00
2022-08-27T06:07:15.747Z,100.00
2022-08-27T06:09:44.173Z,100.00
2022-08-27T06:12:12.618Z,100.00
2022-08-27T06:14:41.057Z,100.00
2022-08-27T06:17:09.541Z,100.00
2022-08-27T06:19:38.010Z,100.00
2022-08-27T06:22:09.881Z,100.00
2022-08-27T06:24:42.258Z,100.00
2022-08-27T06:27:14.868Z,100.00
2022-08-27T06:29:44.868Z,100.00
2022-08-27T06:32:15.143Z,100.00
2022-08-27T06:34:43.667Z,100.00
2022-08-27T06:37:12.134Z,100.00
2022-08-27T06:39:40.818Z,100.00
2022-08-27T06:42:12.553Z,100.00
2022-08-27T06:44:41.728Z,100.00
2022-08-27T06:47:10.840Z,100.00
2022-08-27T06:49:43.410Z,100.00
2022-08-27T06:52:15.637Z,100.00
2022-08-27T06:54:45.157Z,100.00
2022-08-27T06:57:13.665Z,100.00
2022-08-27T06:59:42.333Z,100.00
2022-08-27T07:02:11.553Z,100.00
2022-08-27T07:04:40.075Z,100.00
2022-08-27T07:07:13.820Z,100.00
2022-08-27T07:09:42.314Z,100.00
2022-08-27T07:12:10.831Z,100.00
2022-08-27T07:14:39.377Z,100.00
2022-08-27T07:17:11.231Z,100.00
2022-08-27T07:19:45.443Z,100.00
2022-08-27T07:22:13.987Z,100.00
2022-08-27T07:24:42.829Z,100.00
2022-08-27T07:27:11.387Z,100.00
2022-08-27T07:29:39.970Z,100.00
2022-08-27T07:32:08.447Z,100.00
2022-08-27T07:34:37.523Z,100.00
2022-08-27T07:37:06.239Z,100.00
2022-08-27T07:39:34.660Z,100.00
2022-08-27T07:42:21.839Z,100.00
2022-08-27T07:44:50.444Z,100.00
2022-08-27T07:47:18.873Z,100.00
2022-08-27T07:49:48.601Z,100.00
2022-08-27T07:52:17.652Z,99.96
2022-08-27T07:54:46.129Z,99.87
2022-08-27T07:57:14.675Z,99.50
2022-08-27T07:59:43.580Z,99.44
2022-08-27T08:02:12.951Z,99.55
2022-08-27T08:04:41.528Z,99.48
2022-08-27T08:07:10.049Z,98.37
2022-08-27T08:09:39.026Z,97.66
2022-08-27T08:12:07.705Z,96.91
2022-08-27T08:14:37.031Z,96.32
2022-08-27T08:17:10.117Z,96.44
2022-08-27T08:19:40.533Z,96.01
2022-08-27T08:22:09.331Z,95.65
2022-08-27T08:24:37.832Z,95.43
2022-08-27T08:27:07.619Z,95.16
2022-08-27T08:29:37.794Z,94.72
2022-08-27T08:32:07.935Z,94.69
2022-08-27T08:34:37.274Z,94.53
2022-08-27T08:37:07.287Z,94.14
2022-08-27T08:39:37.934Z,93.92
2022-08-27T08:42:19.434Z,94.12
2022-08-27T08:44:53.840Z,93.94
2022-08-27T08:47:46.490Z,93.46
2022-08-27T08:50:54.114Z,92.64
2022-08-27T08:54:00.028Z,92.43
2022-08-27T08:56:47.977Z,91.98
2022-08-27T08:59:38.710Z,91.23
2022-08-27T09:02:13.533Z,90.52
2022-08-27T09:04:43.758Z,90.12
2022-08-27T09:07:37.526Z,89.06
2022-08-27T09:10:47.483Z,86.95
2022-08-27T09:13:29.793Z,87.51
2022-08-27T09:16:02.270Z,87.61
2022-08-27T09:18:35.214Z,87.85
2022-08-27T09:21:27.452Z,88.24
2022-08-27T09:25:06.356Z,88.66
2022-08-27T09:27:41.666Z,88.72
2022-08-27T09:30:24.060Z,89.04
2022-08-27T09:32:58.364Z,88.92
2022-08-27T09:35:35.119Z,89.40
2022-08-27T09:38:04.590Z,89.11
2022-08-27T09:40:43.011Z,88.93
2022-08-27T09:43:33.581Z,88.71
2022-08-27T09:46:24.657Z,88.60
2022-08-27T09:49:23.758Z,88.46
2022-08-27T09:51:55.272Z,88.64
2022-08-27T09:54:47.611Z,88.27
2022-08-27T09:57:49.407Z,88.40
2022-08-27T10:00:42.626Z,88.24
2022-08-27T10:03:11.976Z,88.06
2022-08-27T10:05:59.476Z,87.48
2022-08-27T10:08:52.631Z,86.30
2022-08-27T10:11:32.832Z,86.19
2022-08-27T10:14:16.437Z,85.20
2022-08-27T10:17:13.067Z,84.73
2022-08-27T10:20:03.675Z,84.58
2022-08-27T10:22:56.411Z,83.72
2022-08-27T10:25:55.967Z,83.15
2022-08-27T10:29:15.383Z,82.99
2022-08-27T10:32:41.707Z,83.20
2022-08-27T10:35:23.708Z,82.60
2022-08-27T10:38:24.047Z,82.59
2022-08-27T10:41:18.166Z,83.65
2022-08-27T10:44:23.717Z,84.02
2022-08-27T10:47:59.873Z,83.73
2022-08-27T10:51:08.509Z,79.35
2022-08-27T10:54:09.345Z,77.65
2022-08-27T10:57:28.638Z,77.55
2022-08-27T11:00:20.449Z,77.52
2022-08-27T11:03:04.049Z,77.85
2022-08-27T11:05:56.832Z,77.48
2022-08-27T11:08:44.731Z,78.22
2022-08-27T11:12:10.020Z,77.96
2022-08-27T11:14:43.500Z,77.38
2022-08-27T11:17:18.813Z,76.89
2022-08-27T11:20:20.029Z,76.17
2022-08-27T11:23:47.313Z,75.96
2022-08-27T11:27:21.816Z,74.62
2022-08-27T11:30:05.717Z,73.18
2022-08-27T11:34:16.304Z,73.41
2022-08-27T11:38:09.278Z,72.89
2022-08-27T11:41:06.703Z,72.55
2022-08-27T11:44:39.797Z,72.02
2022-08-27T11:48:18.929Z,71.42
2022-08-27T11:51:32.216Z,71.05
2022-08-27T11:59:43.067Z,69.84
2022-08-27T12:03:00.102Z,69.36
2022-08-27T12:06:21.298Z,68.99
2022-08-27T12:10:19.877Z,67.27
2022-08-27T12:14:07.968Z,67.18
2022-08-27T12:17:43.760Z,62.78
2022-08-27T12:21:35.571Z,62.82
2022-08-27T12:25:26.652Z,64.40
2022-08-27T12:28:57.639Z,65.77
2022-08-27T12:32:28.869Z,66.54
2022-08-27T12:35:52.115Z,67.56
2022-08-27T12:38:42.897Z,66.95
2022-08-27T12:41:44.565Z,66.55
2022-08-27T12:44:24.608Z,66.39
2022-08-27T12:47:02.009Z,66.12
2022-08-27T12:50:22.301Z,65.62
2022-08-27T12:53:07.250Z,65.09
2022-08-27T12:56:09.179Z,65.18
2022-08-27T12:59:11.773Z,64.70
2022-08-27T13:02:05.490Z,65.99
2022-08-27T13:04:39.628Z,65.58
2022-08-27T13:07:08.193Z,65.67
2022-08-27T13:09:39.520Z,65.46
2022-08-27T13:12:17.883Z,64.75
2022-08-27T13:14:49.617Z,63.93
2022-08-27T13:17:27.347Z,63.93
2022-08-27T13:20:01.407Z,63.69
2022-08-27T13:22:38.979Z,63.05
2022-08-27T13:25:34.033Z,62.98
2022-08-27T13:28:13.656Z,63.00
2022-08-27T13:30:50.420Z,62.07
2022-08-27T13:34:17.855Z,59.15
2022-08-27T13:41:48.850Z,60.93
2022-08-27T13:44:48.192Z,61.66
2022-08-27T13:47:31.076Z,63.29
2022-08-27T13:50:33.672Z,63.23
2022-08-27T13:53:52.435Z,63.16
2022-08-27T13:56:37.084Z,63.68
2022-08-27T13:59:35.581Z,63.76
2022-08-27T14:02:36.235Z,63.16
2022-08-27T14:05:52.872Z,62.83
2022-08-27T14:08:47.293Z,62.86
2022-08-27T14:11:25.563Z,62.77
2022-08-27T14:14:06.909Z,62.04
2022-08-27T14:17:08.117Z,62.03
2022-08-27T14:20:09.445Z,62.23
2022-08-27T14:22:49.524Z,62.52
2022-08-27T14:25:30.753Z,62.29
2022-08-27T14:28:31.434Z,62.77
2022-08-27T14:31:10.428Z,62.80
2022-08-27T14:33:42.795Z,63.40
2022-08-27T14:36:51.745Z,63.44
2022-08-27T14:39:42.276Z,62.94
2022-08-27T14:42:17.669Z,63.15
2022-08-27T14:45:13.936Z,63.45
2022-08-27T14:47:48.508Z,63.41
2022-08-27T14:50:49.117Z,63.98
2022-08-27T14:53:42.934Z,64.91
2022-08-27T14:56:15.744Z,65.68
2022-08-27T14:58:57.032Z,66.05
2022-08-27T15:01:38.246Z,66.36
2022-08-27T15:04:24.400Z,67.01
2022-08-27T15:07:20.041Z,67.24
2022-08-27T15:10:03.319Z,67.28
2022-08-27T15:12:37.259Z,67.73
2022-08-27T15:15:25.566Z,68.04
2022-08-27T15:18:03.432Z,68.07
2022-08-27T15:20:38.530Z,68.40
2022-08-27T15:23:14.924Z,68.41
2022-08-27T15:26:08.614Z,68.69
2022-08-27T15:28:43.201Z,68.69
2022-08-27T15:31:17.939Z,69.10
2022-08-27T15:33:59.195Z,69.23
2022-08-27T15:36:41.412Z,69.44
2022-08-27T15:39:27.848Z,69.79
2022-08-27T15:42:17.800Z,69.54
2022-08-27T15:44:54.942Z,69.38
2022-08-27T15:47:30.548Z,69.52
2022-08-27T15:50:36.895Z,69.11
2022-08-27T15:53:33.170Z,69.15
2022-08-27T15:56:09.098Z,69.05
2022-08-27T15:59:29.129Z,69.01
2022-08-27T16:02:05.746Z,69.53
2022-08-27T16:05:24.332Z,69.50
2022-08-27T16:08:26.544Z,68.48
2022-08-27T16:11:09.037Z,67.09
2022-08-27T16:13:45.271Z,67.29
2022-08-27T16:16:24.994Z,68.00
2022-08-27T16:19:04.079Z,69.06
2022-08-27T16:21:39.566Z,69.15
2022-08-27T16:24:15.399Z,68.60
2022-08-27T16:26:51.700Z,69.15
2022-08-27T16:48:51.521Z,62.78
2022-08-27T16:53:23.407Z,61.19
2022-08-27T16:56:14.830Z,59.67
2022-08-27T16:58:57.719Z,58.34
2022-08-27T17:01:31.969Z,58.04
2022-08-27T17:04:17.307Z,57.99
2022-08-27T17:06:56.666Z,58.48
2022-08-27T17:09:35.926Z,58.02
2022-08-27T17:12:36.789Z,58.14
2022-08-27T17:21:41.900Z,59.04
2022-08-27T17:24:32.588Z,58.98
2022-08-27T17:27:14.575Z,59.42
2022-08-27T17:29:56.114Z,59.52
2022-08-27T17:32:38.452Z,60.14
2022-08-27T17:35:19.855Z,60.50
2022-08-27T17:37:58.055Z,61.08
2022-08-27T17:40:35.055Z,61.02
2022-08-27T17:47:35.170Z,62.77
2022-08-27T17:50:14.563Z,64.21
2022-08-27T17:53:08.197Z,65.62
2022-08-27T17:55:45.224Z,66.57
2022-08-27T17:58:46.502Z,67.04
2022-08-27T18:01:28.495Z,67.85
2022-08-27T18:04:25.214Z,68.38
2022-08-27T18:07:23.557Z,69.24
2022-08-27T18:10:00.704Z,69.74
2022-08-27T18:12:35.809Z,70.33
2022-08-27T18:15:40.192Z,70.89
2022-08-27T18:18:18.194Z,71.65
2022-08-27T18:21:25.577Z,72.07
2022-08-27T18:24:01.710Z,72.48
2022-08-27T18:26:52.227Z,72.92
2022-08-27T18:29:37.621Z,73.04
2022-08-27T18:32:38.995Z,73.79
2022-08-27T18:35:56.791Z,74.20
2022-08-27T18:38:57.192Z,74.57
2022-08-27T18:41:45.254Z,74.97
2022-08-27T18:44:30.248Z,75.42
2022-08-27T18:47:32.907Z,75.76
2022-08-27T18:50:17.850Z,76.21
2022-08-27T18:52:53.917Z,76.42
2022-08-27T18:55:48.391Z,77.14
2022-08-27T18:58:21.960Z,77.49
2022-08-27T19:01:38.378Z,77.80
2022-08-27T19:04:09.365Z,77.95
2022-08-27T19:06:48.781Z,78.27
2022-08-27T19:09:50.766Z,78.76
2022-08-27T19:12:29.880Z,79.25
2022-08-27T19:15:11.992Z,79.44
2022-08-27T19:18:26.988Z,79.70
2022-08-27T19:21:01.208Z,80.17
2022-08-27T19:23:38.864Z,80.33
2022-08-27T19:26:31.814Z,80.73
2022-08-27T19:29:03.663Z,81.36
2022-08-27T19:31:38.811Z,81.37
2022-08-27T19:34:17.619Z,81.82
2022-08-27T19:37:03.456Z,82.14
2022-08-27T19:39:38.286Z,82.50
2022-08-27T19:42:12.324Z,82.84
2022-08-27T19:45:11.473Z,83.30
2022-08-27T19:47:49.723Z,84.25
2022-08-27T19:51:01.753Z,84.44
2022-08-27T19:53:59.687Z,84.76
2022-08-27T19:56:37.249Z,85.32
2022-08-27T19:59:20.590Z,85.35
2022-08-27T20:02:15.436Z,85.83
2022-08-27T20:05:21.104Z,88.90
2022-08-27T20:07:56.666Z,89.64
2022-08-27T20:10:50.187Z,90.08
2022-08-27T20:13:20.866Z,90.42
2022-08-27T20:16:02.199Z,89.31
2022-08-27T20:18:36.491Z,89.04
2022-08-27T20:21:14.096Z,89.12
2022-08-27T20:24:09.159Z,88.99
2022-08-27T20:26:46.053Z,89.18
2022-08-27T20:29:32.913Z,89.36
2022-08-27T20:32:07.084Z,89.56
2022-08-27T20:34:44.748Z,89.67
2022-08-27T20:37:17.815Z,89.75
2022-08-27T20:39:46.515Z,90.05
2022-08-27T20:42:14.973Z,90.35
2022-08-27T20:44:43.349Z,90.49
2022-08-27T20:47:11.901Z,90.74
2022-08-27T20:49:44.651Z,91.14
2022-08-27T20:52:15.020Z,91.45
2022-08-27T20:54:43.373Z,91.52
2022-08-27T20:57:12.359Z,91.75
2022-08-27T20:59:59.651Z,91.96
2022-08-27T21:02:30.267Z,92.37
2022-08-27T21:05:09.366Z,92.76
2022-08-27T21:07:37.888Z,93.12
2022-08-27T21:10:07.849Z,93.57
2022-08-27T21:12:37.217Z,93.83
2022-08-27T21:15:08.522Z,94.33
2022-08-27T21:17:37.360Z,95.04
2022-08-27T21:20:12.981Z,95.28
2022-08-27T21:22:44.083Z,95.71
2022-08-27T21:25:14.077Z,95.99
2022-08-27T21:27:43.079Z,96.16
2022-08-27T21:30:13.033Z,96.51
2022-08-27T21:32:42.211Z,96.66
2022-08-27T21:35:14.834Z,97.00
2022-08-27T21:37:43.880Z,97.26
2022-08-27T21:40:15.903Z,97.43
2022-08-27T21:42:53.476Z,97.68
2022-08-27T21:45:34.521Z,97.70
2022-08-27T21:48:19.158Z,97.98
2022-08-27T21:50:53.972Z,98.07
2022-08-27T21:53:23.202Z,98.33
2022-08-27T21:55:55.545Z,98.44
2022-08-27T21:58:26.775Z,98.64
2022-08-27T22:00:55.867Z,98.84
2022-08-27T22:03:28.699Z,99.16
2022-08-27T22:05:59.814Z,99.69
2022-08-27T22:08:28.157Z,99.98
2022-08-27T22:10:58.817Z,100.00
2022-08-27T22:13:27.497Z,100.00
2022-08-27T22:15:56.318Z,100.00
2022-08-27T22:18:25.067Z,100.00
2022-08-27T22:20:53.725Z,100.00
2022-08-27T22:23:24.851Z,100.00
2022-08-27T22:25:53.302Z,100.00
2022-08-27T22:28:22.082Z,100.00
2022-08-27T22:30:50.518Z,100.00
2022-08-27T22:33:19.136Z,100.00
2022-08-27T22:35:48.456Z,100.00
2022-08-27T22:38:17.815Z,100.00
2022-08-27T22:40:46.511Z,100.00
2022-08-27T22:43:16.392Z,100.00
2022-08-27T22:46:06.200Z,100.00
2022-08-27T22:48:40.706Z,100.00
2022-08-27T22:51:33.969Z,100.00
2022-08-27T22:54:02.385Z,100.00
2022-08-27T22:56:31.776Z,100.00
2022-08-27T22:59:07.364Z,100.00
2022-08-27T23:01:44.806Z,100.00
2022-08-27T23:04:18.925Z,100.00
2022-08-27T23:06:52.856Z,100.00
2022-08-27T23:09:28.042Z,100.00
2022-08-27T23:12:24.262Z,100.00
2022-08-27T23:15:01.964Z,100.00
2022-08-27T23:17:36.431Z,100.00
2022-08-27T23:20:11.821Z,100.00
2022-08-27T23:23:44.500Z,100.00
2022-08-27T23:26:40.063Z,100.00
2022-08-27T23:29:52.711Z,100.00
2022-08-27T23:32:50.202Z,100.00
2022-08-27T23:35:34.734Z,100.00
2022-08-27T23:38:07.631Z,100.00
2022-08-27T23:41:16.355Z,100.00
2022-08-27T23:43:54.321Z,100.00
2022-08-27T23:46:48.564Z,100.00
2022-08-27T23:49:27.845Z,100.00
2022-08-27T23:52:01.862Z,100.00
2022-08-27T23:54:35.701Z,100.00
2022-08-27T23:57:04.815Z,100.00
2022-08-27T23:59:33.296Z,100.00
